sensor_id;sensor_type;location;lat;lon;timestamp;P1;durP1;ratioP1;P2;durP2;ratioP2
39776;SDS011;25453;48.162;14.510;2023-07-16T00:01:01;1.10;;;0.60;;
39776;SDS011;25453;48.162;14.510;2023-07-16T00:03:28;1.98;;;1.20;;
39776;SDS011;25453;48.162;14.510;2023-07-16T00:05:55;1.52;;;0.80;;
39776;SDS011;25453;48.162;14.510;2023-07-16T00:08:22;1.83;;;1.00;;
39776;SDS011;25453;48.162;14.510;2023-07-16T00:10:50;1.40;;;0.82;;
39776;SDS011;25453;48.162;14.510;2023-07-16T00:13:17;1.17;;;0.70;;
39776;SDS011;25453;48.162;14.510;2023-07-16T00:15:44;1.40;;;0.85;;
39776;SDS011;25453;48.162;14.510;2023-07-16T00:18:11;1.10;;;0.80;;
39776;SDS011;25453;48.162;14.510;2023-07-16T00:20:39;2.50;;;1.17;;
39776;SDS011;25453;48.162;14.510;2023-07-16T00:23:06;1.20;;;0.80;;
39776;SDS011;25453;48.162;14.510;2023-07-16T00:25:33;0.95;;;0.75;;
39776;SDS011;25453;48.162;14.510;2023-07-16T00:28:01;1.42;;;0.95;;
39776;SDS011;25453;48.162;14.510;2023-07-16T00:30:29;1.55;;;0.82;;
39776;SDS011;25453;48.162;14.510;2023-07-16T00:32:56;1.23;;;0.82;;
39776;SDS011;25453;48.162;14.510;2023-07-16T00:35:23;1.25;;;0.95;;
39776;SDS011;25453;48.162;14.510;2023-07-16T00:37:50;2.30;;;0.95;;
39776;SDS011;25453;48.162;14.510;2023-07-16T00:40:18;1.35;;;0.98;;
39776;SDS011;25453;48.162;14.510;2023-07-16T00:42:45;1.75;;;0.80;;
39776;SDS011;25453;48.162;14.510;2023-07-16T00:45:15;2.58;;;1.10;;
39776;SDS011;25453;48.162;14.510;2023-07-16T00:47:43;1.30;;;0.98;;
39776;SDS011;25453;48.162;14.510;2023-07-16T00:50:11;1.88;;;0.98;;
39776;SDS011;25453;48.162;14.510;2023-07-16T00:52:38;1.77;;;1.15;;
39776;SDS011;25453;48.162;14.510;2023-07-16T00:55:07;2.40;;;1.50;;
39776;SDS011;25453;48.162;14.510;2023-07-16T00:57:35;1.35;;;0.95;;
39776;SDS011;25453;48.162;14.510;2023-07-16T01:00:03;2.28;;;1.00;;
39776;SDS011;25453;48.162;14.510;2023-07-16T01:02:31;1.75;;;1.27;;
39776;SDS011;25453;48.162;14.510;2023-07-16T01:04:59;2.47;;;0.90;;
39776;SDS011;25453;48.162;14.510;2023-07-16T01:07:27;2.25;;;1.17;;
39776;SDS011;25453;48.162;14.510;2023-07-16T01:09:56;1.70;;;1.10;;
39776;SDS011;25453;48.162;14.510;2023-07-16T01:12:25;3.15;;;1.30;;
39776;SDS011;25453;48.162;14.510;2023-07-16T01:14:54;2.17;;;1.40;;
39776;SDS011;25453;48.162;14.510;2023-07-16T01:17:24;1.63;;;1.05;;
39776;SDS011;25453;48.162;14.510;2023-07-16T01:19:52;1.80;;;1.20;;
39776;SDS011;25453;48.162;14.510;2023-07-16T01:22:35;1.65;;;1.00;;
39776;SDS011;25453;48.162;14.510;2023-07-16T01:25:34;2.38;;;1.33;;
39776;SDS011;25453;48.162;14.510;2023-07-16T01:28:39;2.00;;;1.10;;
39776;SDS011;25453;48.162;14.510;2023-07-16T01:31:20;4.07;;;1.30;;
39776;SDS011;25453;48.162;14.510;2023-07-16T01:33:49;1.88;;;1.10;;
39776;SDS011;25453;48.162;14.510;2023-07-16T01:36:18;1.75;;;1.20;;
39776;SDS011;25453;48.162;14.510;2023-07-16T01:38:47;2.33;;;1.20;;
39776;SDS011;25453;48.162;14.510;2023-07-16T01:41:14;1.73;;;1.10;;
39776;SDS011;25453;48.162;14.510;2023-07-16T01:43:41;2.20;;;1.13;;
39776;SDS011;25453;48.162;14.510;2023-07-16T01:46:09;2.17;;;1.08;;
39776;SDS011;25453;48.162;14.510;2023-07-16T01:48:36;2.28;;;1.38;;
39776;SDS011;25453;48.162;14.510;2023-07-16T01:51:04;2.47;;;1.58;;
39776;SDS011;25453;48.162;14.510;2023-07-16T01:53:32;2.88;;;1.40;;
39776;SDS011;25453;48.162;14.510;2023-07-16T01:56:02;1.73;;;1.23;;
39776;SDS011;25453;48.162;14.510;2023-07-16T01:58:30;2.10;;;1.10;;
39776;SDS011;25453;48.162;14.510;2023-07-16T02:00:57;2.25;;;1.20;;
39776;SDS011;25453;48.162;14.510;2023-07-16T02:03:24;2.22;;;1.30;;
39776;SDS011;25453;48.162;14.510;2023-07-16T02:05:52;2.15;;;1.30;;
39776;SDS011;25453;48.162;14.510;2023-07-16T02:08:19;2.28;;;1.40;;
39776;SDS011;25453;48.162;14.510;2023-07-16T02:10:47;2.60;;;1.38;;
39776;SDS011;25453;48.162;14.510;2023-07-16T02:13:15;2.20;;;1.25;;
39776;SDS011;25453;48.162;14.510;2023-07-16T02:15:42;2.63;;;1.40;;
39776;SDS011;25453;48.162;14.510;2023-07-16T02:18:10;1.70;;;1.30;;
39776;SDS011;25453;48.162;14.510;2023-07-16T02:20:37;3.08;;;1.75;;
39776;SDS011;25453;48.162;14.510;2023-07-16T02:23:04;2.78;;;1.60;;
39776;SDS011;25453;48.162;14.510;2023-07-16T02:25:32;2.55;;;1.48;;
39776;SDS011;25453;48.162;14.510;2023-07-16T02:28:00;2.10;;;1.17;;
39776;SDS011;25453;48.162;14.510;2023-07-16T02:30:27;3.47;;;1.73;;
39776;SDS011;25453;48.162;14.510;2023-07-16T02:32:54;3.42;;;2.20;;
39776;SDS011;25453;48.162;14.510;2023-07-16T02:35:21;3.72;;;2.00;;
39776;SDS011;25453;48.162;14.510;2023-07-16T02:37:48;3.53;;;2.13;;
39776;SDS011;25453;48.162;14.510;2023-07-16T02:40:16;3.80;;;2.10;;
39776;SDS011;25453;48.162;14.510;2023-07-16T02:42:43;2.90;;;1.83;;
39776;SDS011;25453;48.162;14.510;2023-07-16T02:45:10;3.53;;;1.88;;
39776;SDS011;25453;48.162;14.510;2023-07-16T02:47:37;2.75;;;1.80;;
39776;SDS011;25453;48.162;14.510;2023-07-16T02:50:05;3.30;;;2.17;;
39776;SDS011;25453;48.162;14.510;2023-07-16T02:52:32;3.45;;;2.00;;
39776;SDS011;25453;48.162;14.510;2023-07-16T02:55:00;2.97;;;1.90;;
39776;SDS011;25453;48.162;14.510;2023-07-16T02:57:27;3.45;;;1.90;;
39776;SDS011;25453;48.162;14.510;2023-07-16T02:59:55;3.53;;;2.10;;
39776;SDS011;25453;48.162;14.510;2023-07-16T03:02:22;4.15;;;2.70;;
39776;SDS011;25453;48.162;14.510;2023-07-16T03:04:50;4.68;;;2.90;;
39776;SDS011;25453;48.162;14.510;2023-07-16T03:07:17;4.57;;;2.53;;
39776;SDS011;25453;48.162;14.510;2023-07-16T03:09:44;6.32;;;3.15;;
39776;SDS011;25453;48.162;14.510;2023-07-16T03:12:11;4.93;;;3.03;;
39776;SDS011;25453;48.162;14.510;2023-07-16T03:14:38;4.38;;;2.85;;
39776;SDS011;25453;48.162;14.510;2023-07-16T03:17:05;5.13;;;3.47;;
39776;SDS011;25453;48.162;14.510;2023-07-16T03:19:33;5.63;;;3.72;;
39776;SDS011;25453;48.162;14.510;2023-07-16T03:22:00;5.60;;;3.55;;
39776;SDS011;25453;48.162;14.510;2023-07-16T03:24:29;5.00;;;3.25;;
39776;SDS011;25453;48.162;14.510;2023-07-16T03:26:56;4.93;;;3.38;;
39776;SDS011;25453;48.162;14.510;2023-07-16T03:29:38;5.07;;;3.42;;
39776;SDS011;25453;48.162;14.510;2023-07-16T03:32:05;5.95;;;3.88;;
39776;SDS011;25453;48.162;14.510;2023-07-16T03:34:32;6.28;;;3.45;;
39776;SDS011;25453;48.162;14.510;2023-07-16T03:36:59;5.95;;;3.63;;
39776;SDS011;25453;48.162;14.510;2023-07-16T03:39:26;6.43;;;3.63;;
39776;SDS011;25453;48.162;14.510;2023-07-16T03:41:54;7.18;;;3.60;;
39776;SDS011;25453;48.162;14.510;2023-07-16T03:44:21;5.07;;;3.10;;
39776;SDS011;25453;48.162;14.510;2023-07-16T03:46:48;7.13;;;3.42;;
39776;SDS011;25453;48.162;14.510;2023-07-16T03:49:15;7.05;;;3.17;;
39776;SDS011;25453;48.162;14.510;2023-07-16T03:51:42;4.20;;;2.85;;
39776;SDS011;25453;48.162;14.510;2023-07-16T03:54:09;7.10;;;3.28;;
39776;SDS011;25453;48.162;14.510;2023-07-16T03:56:52;4.72;;;3.17;;
39776;SDS011;25453;48.162;14.510;2023-07-16T03:59:19;4.47;;;2.70;;
39776;SDS011;25453;48.162;14.510;2023-07-16T04:01:46;3.88;;;2.38;;
39776;SDS011;25453;48.162;14.510;2023-07-16T04:04:13;4.22;;;2.28;;
39776;SDS011;25453;48.162;14.510;2023-07-16T04:06:41;3.42;;;2.42;;
39776;SDS011;25453;48.162;14.510;2023-07-16T04:09:08;4.85;;;2.25;;
39776;SDS011;25453;48.162;14.510;2023-07-16T04:11:35;5.22;;;2.38;;
39776;SDS011;25453;48.162;14.510;2023-07-16T04:14:02;4.20;;;2.17;;
39776;SDS011;25453;48.162;14.510;2023-07-16T04:16:29;4.55;;;2.67;;
39776;SDS011;25453;48.162;14.510;2023-07-16T04:18:56;4.55;;;2.33;;
39776;SDS011;25453;48.162;14.510;2023-07-16T04:21:23;4.20;;;2.65;;
39776;SDS011;25453;48.162;14.510;2023-07-16T04:23:50;3.75;;;1.90;;
39776;SDS011;25453;48.162;14.510;2023-07-16T04:26:17;4.10;;;2.20;;
39776;SDS011;25453;48.162;14.510;2023-07-16T04:28:45;5.25;;;2.22;;
39776;SDS011;25453;48.162;14.510;2023-07-16T04:31:12;3.30;;;2.17;;
39776;SDS011;25453;48.162;14.510;2023-07-16T04:33:39;4.00;;;1.90;;
39776;SDS011;25453;48.162;14.510;2023-07-16T04:36:06;3.95;;;2.17;;
39776;SDS011;25453;48.162;14.510;2023-07-16T04:38:33;5.63;;;2.67;;
39776;SDS011;25453;48.162;14.510;2023-07-16T04:41:00;3.08;;;1.70;;
39776;SDS011;25453;48.162;14.510;2023-07-16T04:43:27;4.25;;;1.88;;
39776;SDS011;25453;48.162;14.510;2023-07-16T04:45:54;2.92;;;1.77;;
39776;SDS011;25453;48.162;14.510;2023-07-16T04:48:22;4.25;;;2.35;;
39776;SDS011;25453;48.162;14.510;2023-07-16T04:50:50;3.75;;;1.98;;
39776;SDS011;25453;48.162;14.510;2023-07-16T04:53:19;3.70;;;2.08;;
39776;SDS011;25453;48.162;14.510;2023-07-16T04:55:46;3.08;;;1.67;;
39776;SDS011;25453;48.162;14.510;2023-07-16T04:58:13;2.97;;;1.60;;
39776;SDS011;25453;48.162;14.510;2023-07-16T05:00:40;3.35;;;1.90;;
39776;SDS011;25453;48.162;14.510;2023-07-16T05:03:08;2.10;;;1.52;;
39776;SDS011;25453;48.162;14.510;2023-07-16T05:05:35;4.05;;;1.73;;
39776;SDS011;25453;48.162;14.510;2023-07-16T05:08:02;3.03;;;1.52;;
39776;SDS011;25453;48.162;14.510;2023-07-16T05:10:30;3.05;;;1.67;;
39776;SDS011;25453;48.162;14.510;2023-07-16T05:12:57;3.50;;;1.45;;
39776;SDS011;25453;48.162;14.510;2023-07-16T05:15:24;3.50;;;1.80;;
39776;SDS011;25453;48.162;14.510;2023-07-16T05:17:51;3.97;;;1.88;;
39776;SDS011;25453;48.162;14.510;2023-07-16T05:20:19;3.88;;;1.60;;
39776;SDS011;25453;48.162;14.510;2023-07-16T05:22:46;1.98;;;1.27;;
39776;SDS011;25453;48.162;14.510;2023-07-16T05:25:14;2.08;;;1.23;;
39776;SDS011;25453;48.162;14.510;2023-07-16T05:27:41;2.38;;;1.52;;
39776;SDS011;25453;48.162;14.510;2023-07-16T05:30:08;3.05;;;1.30;;
39776;SDS011;25453;48.162;14.510;2023-07-16T05:32:36;2.03;;;1.50;;
39776;SDS011;25453;48.162;14.510;2023-07-16T05:35:03;2.83;;;1.65;;
39776;SDS011;25453;48.162;14.510;2023-07-16T05:37:31;3.33;;;1.73;;
39776;SDS011;25453;48.162;14.510;2023-07-16T05:39:58;2.30;;;1.40;;
39776;SDS011;25453;48.162;14.510;2023-07-16T05:42:25;2.53;;;1.50;;
39776;SDS011;25453;48.162;14.510;2023-07-16T05:44:52;3.83;;;1.65;;
39776;SDS011;25453;48.162;14.510;2023-07-16T05:47:19;3.15;;;1.75;;
39776;SDS011;25453;48.162;14.510;2023-07-16T05:49:47;2.92;;;1.67;;
39776;SDS011;25453;48.162;14.510;2023-07-16T05:52:14;3.25;;;1.63;;
39776;SDS011;25453;48.162;14.510;2023-07-16T05:54:43;3.60;;;1.75;;
39776;SDS011;25453;48.162;14.510;2023-07-16T05:57:11;2.10;;;1.50;;
39776;SDS011;25453;48.162;14.510;2023-07-16T05:59:38;2.95;;;1.63;;
39776;SDS011;25453;48.162;14.510;2023-07-16T06:02:05;2.97;;;1.60;;
39776;SDS011;25453;48.162;14.510;2023-07-16T06:04:33;2.80;;;1.58;;
39776;SDS011;25453;48.162;14.510;2023-07-16T06:07:00;2.42;;;1.40;;
39776;SDS011;25453;48.162;14.510;2023-07-16T06:09:29;2.72;;;1.73;;
39776;SDS011;25453;48.162;14.510;2023-07-16T06:11:56;4.10;;;1.63;;
39776;SDS011;25453;48.162;14.510;2023-07-16T06:14:23;3.65;;;2.15;;
39776;SDS011;25453;48.162;14.510;2023-07-16T06:16:50;2.95;;;1.70;;
39776;SDS011;25453;48.162;14.510;2023-07-16T06:19:19;2.30;;;1.40;;
39776;SDS011;25453;48.162;14.510;2023-07-16T06:21:46;2.42;;;1.27;;
39776;SDS011;25453;48.162;14.510;2023-07-16T06:24:13;2.25;;;1.30;;
39776;SDS011;25453;48.162;14.510;2023-07-16T06:26:42;2.65;;;1.40;;
39776;SDS011;25453;48.162;14.510;2023-07-16T06:29:10;2.63;;;1.45;;
39776;SDS011;25453;48.162;14.510;2023-07-16T06:31:37;2.83;;;1.25;;
39776;SDS011;25453;48.162;14.510;2023-07-16T06:34:04;2.05;;;1.15;;
39776;SDS011;25453;48.162;14.510;2023-07-16T06:36:32;2.22;;;1.00;;
39776;SDS011;25453;48.162;14.510;2023-07-16T06:38:59;3.13;;;1.42;;
39776;SDS011;25453;48.162;14.510;2023-07-16T06:41:27;2.10;;;1.20;;
39776;SDS011;25453;48.162;14.510;2023-07-16T06:43:54;1.92;;;1.30;;
39776;SDS011;25453;48.162;14.510;2023-07-16T06:46:22;2.33;;;1.30;;
39776;SDS011;25453;48.162;14.510;2023-07-16T06:48:49;2.63;;;1.35;;
39776;SDS011;25453;48.162;14.510;2023-07-16T06:51:16;2.40;;;1.30;;
39776;SDS011;25453;48.162;14.510;2023-07-16T06:53:46;1.98;;;1.15;;
39776;SDS011;25453;48.162;14.510;2023-07-16T06:56:14;2.22;;;1.42;;
39776;SDS011;25453;48.162;14.510;2023-07-16T06:58:41;2.10;;;1.10;;
39776;SDS011;25453;48.162;14.510;2023-07-16T07:01:09;2.88;;;1.50;;
39776;SDS011;25453;48.162;14.510;2023-07-16T07:03:36;9.35;;;1.98;;
39776;SDS011;25453;48.162;14.510;2023-07-16T07:06:03;2.55;;;1.75;;
39776;SDS011;25453;48.162;14.510;2023-07-16T07:08:30;2.47;;;1.58;;
39776;SDS011;25453;48.162;14.510;2023-07-16T07:10:57;3.28;;;1.90;;
39776;SDS011;25453;48.162;14.510;2023-07-16T07:13:25;3.13;;;1.90;;
39776;SDS011;25453;48.162;14.510;2023-07-16T07:15:52;2.60;;;1.52;;
39776;SDS011;25453;48.162;14.510;2023-07-16T07:18:19;4.57;;;2.08;;
39776;SDS011;25453;48.162;14.510;2023-07-16T07:20:46;2.85;;;1.77;;
39776;SDS011;25453;48.162;14.510;2023-07-16T07:23:17;3.38;;;1.77;;
39776;SDS011;25453;48.162;14.510;2023-07-16T07:25:48;4.05;;;1.98;;
39776;SDS011;25453;48.162;14.510;2023-07-16T07:28:18;2.38;;;1.45;;
39776;SDS011;25453;48.162;14.510;2023-07-16T07:30:46;2.38;;;1.30;;
39776;SDS011;25453;48.162;14.510;2023-07-16T07:33:13;2.13;;;1.23;;
39776;SDS011;25453;48.162;14.510;2023-07-16T07:35:40;2.67;;;1.55;;
39776;SDS011;25453;48.162;14.510;2023-07-16T07:38:07;2.10;;;1.58;;
39776;SDS011;25453;48.162;14.510;2023-07-16T07:40:34;3.65;;;1.70;;
39776;SDS011;25453;48.162;14.510;2023-07-16T07:43:02;1.90;;;1.30;;
39776;SDS011;25453;48.162;14.510;2023-07-16T07:45:29;2.22;;;1.23;;
39776;SDS011;25453;48.162;14.510;2023-07-16T07:47:56;2.45;;;1.40;;
39776;SDS011;25453;48.162;14.510;2023-07-16T07:50:23;2.75;;;1.20;;
39776;SDS011;25453;48.162;14.510;2023-07-16T07:52:52;1.70;;;1.27;;
39776;SDS011;25453;48.162;14.510;2023-07-16T07:55:19;2.03;;;1.15;;
39776;SDS011;25453;48.162;14.510;2023-07-16T07:57:46;2.17;;;1.52;;
39776;SDS011;25453;48.162;14.510;2023-07-16T08:00:13;3.22;;;1.60;;
39776;SDS011;25453;48.162;14.510;2023-07-16T08:02:41;2.88;;;1.27;;
39776;SDS011;25453;48.162;14.510;2023-07-16T08:05:08;2.03;;;1.20;;
39776;SDS011;25453;48.162;14.510;2023-07-16T08:07:35;1.83;;;1.30;;
39776;SDS011;25453;48.162;14.510;2023-07-16T08:10:03;1.90;;;1.23;;
39776;SDS011;25453;48.162;14.510;2023-07-16T08:12:30;2.10;;;1.08;;
39776;SDS011;25453;48.162;14.510;2023-07-16T08:14:58;1.73;;;1.02;;
39776;SDS011;25453;48.162;14.510;2023-07-16T08:17:26;1.80;;;1.15;;
39776;SDS011;25453;48.162;14.510;2023-07-16T08:19:53;2.03;;;1.42;;
39776;SDS011;25453;48.162;14.510;2023-07-16T08:22:21;2.00;;;1.10;;
39776;SDS011;25453;48.162;14.510;2023-07-16T08:24:53;2.70;;;1.45;;
39776;SDS011;25453;48.162;14.510;2023-07-16T08:27:20;1.88;;;1.10;;
39776;SDS011;25453;48.162;14.510;2023-07-16T08:29:50;2.92;;;1.42;;
39776;SDS011;25453;48.162;14.510;2023-07-16T08:32:18;2.17;;;1.13;;
39776;SDS011;25453;48.162;14.510;2023-07-16T08:34:45;3.53;;;1.67;;
39776;SDS011;25453;48.162;14.510;2023-07-16T08:37:13;3.53;;;1.67;;
39776;SDS011;25453;48.162;14.510;2023-07-16T08:39:40;3.72;;;1.17;;
39776;SDS011;25453;48.162;14.510;2023-07-16T08:42:09;2.45;;;1.60;;
39776;SDS011;25453;48.162;14.510;2023-07-16T08:44:37;3.45;;;1.60;;
39776;SDS011;25453;48.162;14.510;2023-07-16T08:47:05;3.17;;;1.00;;
39776;SDS011;25453;48.162;14.510;2023-07-16T08:49:35;2.30;;;1.27;;
39776;SDS011;25453;48.162;14.510;2023-07-16T08:52:04;3.17;;;1.40;;
39776;SDS011;25453;48.162;14.510;2023-07-16T08:54:33;2.45;;;1.42;;
39776;SDS011;25453;48.162;14.510;2023-07-16T08:57:00;3.38;;;1.52;;
39776;SDS011;25453;48.162;14.510;2023-07-16T08:59:27;1.45;;;1.00;;
39776;SDS011;25453;48.162;14.510;2023-07-16T09:01:55;2.63;;;1.58;;
39776;SDS011;25453;48.162;14.510;2023-07-16T09:04:22;1.35;;;1.00;;
39776;SDS011;25453;48.162;14.510;2023-07-16T09:06:49;2.00;;;1.25;;
39776;SDS011;25453;48.162;14.510;2023-07-16T09:09:23;2.13;;;1.20;;
39776;SDS011;25453;48.162;14.510;2023-07-16T09:11:50;2.17;;;1.20;;
39776;SDS011;25453;48.162;14.510;2023-07-16T09:14:18;2.72;;;1.25;;
39776;SDS011;25453;48.162;14.510;2023-07-16T09:16:50;2.17;;;1.08;;
39776;SDS011;25453;48.162;14.510;2023-07-16T09:19:18;1.90;;;1.20;;
39776;SDS011;25453;48.162;14.510;2023-07-16T09:21:47;1.67;;;1.17;;
39776;SDS011;25453;48.162;14.510;2023-07-16T09:24:14;1.92;;;1.30;;
39776;SDS011;25453;48.162;14.510;2023-07-16T09:26:53;1.55;;;1.05;;
39776;SDS011;25453;48.162;14.510;2023-07-16T09:29:22;2.88;;;0.90;;
39776;SDS011;25453;48.162;14.510;2023-07-16T09:34:27;2.97;;;1.60;;
39776;SDS011;25453;48.162;14.510;2023-07-16T09:36:59;2.33;;;1.15;;
39776;SDS011;25453;48.162;14.510;2023-07-16T09:39:27;1.92;;;1.10;;
39776;SDS011;25453;48.162;14.510;2023-07-16T09:41:54;2.70;;;1.33;;
39776;SDS011;25453;48.162;14.510;2023-07-16T09:44:24;2.00;;;1.15;;
39776;SDS011;25453;48.162;14.510;2023-07-16T09:46:51;2.30;;;1.00;;
39776;SDS011;25453;48.162;14.510;2023-07-16T09:49:19;2.60;;;1.10;;
39776;SDS011;25453;48.162;14.510;2023-07-16T09:51:46;1.85;;;1.15;;
39776;SDS011;25453;48.162;14.510;2023-07-16T09:54:19;2.60;;;1.10;;
39776;SDS011;25453;48.162;14.510;2023-07-16T09:56:48;2.05;;;1.13;;
39776;SDS011;25453;48.162;14.510;2023-07-16T09:59:20;1.58;;;1.15;;
39776;SDS011;25453;48.162;14.510;2023-07-16T10:01:51;2.72;;;1.38;;
39776;SDS011;25453;48.162;14.510;2023-07-16T10:04:20;1.88;;;1.08;;
39776;SDS011;25453;48.162;14.510;2023-07-16T10:07:00;1.90;;;1.10;;
39776;SDS011;25453;48.162;14.510;2023-07-16T10:09:32;1.60;;;1.00;;
39776;SDS011;25453;48.162;14.510;2023-07-16T10:12:12;5.15;;;1.27;;
39776;SDS011;25453;48.162;14.510;2023-07-16T10:14:41;2.28;;;1.05;;
39776;SDS011;25453;48.162;14.510;2023-07-16T10:17:17;2.00;;;1.13;;
39776;SDS011;25453;48.162;14.510;2023-07-16T10:25:08;1.50;;;1.02;;
39776;SDS011;25453;48.162;14.510;2023-07-16T10:27:45;1.50;;;1.10;;
39776;SDS011;25453;48.162;14.510;2023-07-16T10:30:13;1.23;;;1.00;;
39776;SDS011;25453;48.162;14.510;2023-07-16T10:32:41;2.13;;;1.25;;
39776;SDS011;25453;48.162;14.510;2023-07-16T10:35:10;1.48;;;1.02;;
39776;SDS011;25453;48.162;14.510;2023-07-16T10:37:38;1.60;;;1.10;;
39776;SDS011;25453;48.162;14.510;2023-07-16T10:40:06;1.65;;;0.85;;
39776;SDS011;25453;48.162;14.510;2023-07-16T10:42:39;1.35;;;0.98;;
39776;SDS011;25453;48.162;14.510;2023-07-16T10:45:09;1.42;;;0.88;;
39776;SDS011;25453;48.162;14.510;2023-07-16T10:47:39;1.10;;;0.80;;
39776;SDS011;25453;48.162;14.510;2023-07-16T10:50:18;1.30;;;0.80;;
39776;SDS011;25453;48.162;14.510;2023-07-16T10:52:51;1.10;;;0.70;;
39776;SDS011;25453;48.162;14.510;2023-07-16T10:55:22;1.55;;;0.80;;
39776;SDS011;25453;48.162;14.510;2023-07-16T10:57:50;1.02;;;0.70;;
39776;SDS011;25453;48.162;14.510;2023-07-16T11:00:18;1.45;;;0.70;;
39776;SDS011;25453;48.162;14.510;2023-07-16T11:02:51;1.00;;;0.60;;
39776;SDS011;25453;48.162;14.510;2023-07-16T11:05:18;1.17;;;0.70;;
39776;SDS011;25453;48.162;14.510;2023-07-16T11:07:46;1.08;;;0.70;;
39776;SDS011;25453;48.162;14.510;2023-07-16T11:10:19;1.17;;;0.65;;
39776;SDS011;25453;48.162;14.510;2023-07-16T11:12:50;1.08;;;0.77;;
39776;SDS011;25453;48.162;14.510;2023-07-16T11:15:32;2.20;;;0.90;;
39776;SDS011;25453;48.162;14.510;2023-07-16T11:18:01;1.50;;;0.80;;
39776;SDS011;25453;48.162;14.510;2023-07-16T11:20:29;1.67;;;0.68;;
39776;SDS011;25453;48.162;14.510;2023-07-16T11:22:58;1.00;;;0.60;;
39776;SDS011;25453;48.162;14.510;2023-07-16T11:25:29;1.23;;;0.70;;
39776;SDS011;25453;48.162;14.510;2023-07-16T11:27:57;1.15;;;0.60;;
39776;SDS011;25453;48.162;14.510;2023-07-16T11:30:24;0.77;;;0.60;;
39776;SDS011;25453;48.162;14.510;2023-07-16T11:32:54;1.23;;;0.70;;
39776;SDS011;25453;48.162;14.510;2023-07-16T11:35:24;1.45;;;0.70;;
39776;SDS011;25453;48.162;14.510;2023-07-16T11:37:54;1.38;;;0.90;;
39776;SDS011;25453;48.162;14.510;2023-07-16T11:40:21;1.00;;;0.68;;
39776;SDS011;25453;48.162;14.510;2023-07-16T11:42:48;1.02;;;0.57;;
39776;SDS011;25453;48.162;14.510;2023-07-16T11:45:17;1.15;;;0.60;;
39776;SDS011;25453;48.162;14.510;2023-07-16T11:47:47;1.63;;;0.80;;
39776;SDS011;25453;48.162;14.510;2023-07-16T11:50:14;2.92;;;1.10;;
39776;SDS011;25453;48.162;14.510;2023-07-16T11:52:42;2.38;;;1.23;;
39776;SDS011;25453;48.162;14.510;2023-07-16T11:55:09;2.13;;;1.23;;
39776;SDS011;25453;48.162;14.510;2023-07-16T11:57:36;1.75;;;0.90;;
39776;SDS011;25453;48.162;14.510;2023-07-16T12:00:04;1.63;;;0.90;;
39776;SDS011;25453;48.162;14.510;2023-07-16T12:02:33;1.40;;;0.90;;
39776;SDS011;25453;48.162;14.510;2023-07-16T12:05:00;1.48;;;0.90;;
39776;SDS011;25453;48.162;14.510;2023-07-16T12:07:32;1.73;;;1.10;;
39776;SDS011;25453;48.162;14.510;2023-07-16T12:10:04;1.10;;;0.70;;
39776;SDS011;25453;48.162;14.510;2023-07-16T12:12:33;1.45;;;0.63;;
39776;SDS011;25453;48.162;14.510;2023-07-16T12:15:06;1.35;;;0.80;;
39776;SDS011;25453;48.162;14.510;2023-07-16T12:17:34;1.90;;;0.88;;
39776;SDS011;25453;48.162;14.510;2023-07-16T12:20:02;1.02;;;0.93;;
39776;SDS011;25453;48.162;14.510;2023-07-16T12:22:31;1.73;;;1.08;;
39776;SDS011;25453;48.162;14.510;2023-07-16T12:24:58;1.80;;;1.10;;
39776;SDS011;25453;48.162;14.510;2023-07-16T12:27:26;1.17;;;0.80;;
39776;SDS011;25453;48.162;14.510;2023-07-16T12:29:53;1.50;;;0.90;;
39776;SDS011;25453;48.162;14.510;2023-07-16T12:32:20;2.10;;;0.80;;
39776;SDS011;25453;48.162;14.510;2023-07-16T12:34:47;0.85;;;0.60;;
39776;SDS011;25453;48.162;14.510;2023-07-16T12:37:14;1.48;;;0.60;;
39776;SDS011;25453;48.162;14.510;2023-07-16T12:39:43;1.00;;;0.60;;
39776;SDS011;25453;48.162;14.510;2023-07-16T12:42:10;0.93;;;0.70;;
39776;SDS011;25453;48.162;14.510;2023-07-16T12:44:37;1.00;;;0.65;;
39776;SDS011;25453;48.162;14.510;2023-07-16T12:47:04;0.93;;;0.60;;
39776;SDS011;25453;48.162;14.510;2023-07-16T12:49:35;0.80;;;0.50;;
39776;SDS011;25453;48.162;14.510;2023-07-16T12:52:02;1.02;;;0.63;;
39776;SDS011;25453;48.162;14.510;2023-07-16T12:54:30;2.90;;;0.70;;
39776;SDS011;25453;48.162;14.510;2023-07-16T12:56:58;0.82;;;0.50;;
39776;SDS011;25453;48.162;14.510;2023-07-16T12:59:25;0.50;;;0.40;;
39776;SDS011;25453;48.162;14.510;2023-07-16T13:01:52;1.05;;;0.50;;
39776;SDS011;25453;48.162;14.510;2023-07-16T13:04:19;0.47;;;0.30;;
39776;SDS011;25453;48.162;14.510;2023-07-16T13:06:46;0.70;;;0.50;;
39776;SDS011;25453;48.162;14.510;2023-07-16T13:09:14;1.73;;;0.70;;
39776;SDS011;25453;48.162;14.510;2023-07-16T13:11:42;1.48;;;0.77;;
39776;SDS011;25453;48.162;14.510;2023-07-16T13:14:09;1.05;;;0.70;;
39776;SDS011;25453;48.162;14.510;2023-07-16T13:16:36;0.88;;;0.60;;
39776;SDS011;25453;48.162;14.510;2023-07-16T13:19:04;0.77;;;0.40;;
39776;SDS011;25453;48.162;14.510;2023-07-16T13:21:31;1.30;;;0.50;;
39776;SDS011;25453;48.162;14.510;2023-07-16T13:23:58;1.48;;;0.70;;
39776;SDS011;25453;48.162;14.510;2023-07-16T13:26:25;0.82;;;0.50;;
39776;SDS011;25453;48.162;14.510;2023-07-16T13:28:52;0.68;;;0.40;;
39776;SDS011;25453;48.162;14.510;2023-07-16T13:31:20;1.25;;;0.57;;
39776;SDS011;25453;48.162;14.510;2023-07-16T13:33:47;0.50;;;0.40;;
39776;SDS011;25453;48.162;14.510;2023-07-16T13:36:14;1.10;;;0.60;;
39776;SDS011;25453;48.162;14.510;2023-07-16T13:38:42;1.65;;;0.57;;
39776;SDS011;25453;48.162;14.510;2023-07-16T13:41:09;0.80;;;0.55;;
39776;SDS011;25453;48.162;14.510;2023-07-16T13:43:36;1.00;;;0.50;;
39776;SDS011;25453;48.162;14.510;2023-07-16T13:46:04;1.23;;;0.68;;
39776;SDS011;25453;48.162;14.510;2023-07-16T13:48:31;2.15;;;0.85;;
39776;SDS011;25453;48.162;14.510;2023-07-16T13:51:18;1.27;;;0.80;;
39776;SDS011;25453;48.162;14.510;2023-07-16T13:53:46;1.92;;;0.88;;
39776;SDS011;25453;48.162;14.510;2023-07-16T13:56:13;0.70;;;0.60;;
39776;SDS011;25453;48.162;14.510;2023-07-16T13:58:41;1.20;;;0.80;;
39776;SDS011;25453;48.162;14.510;2023-07-16T14:01:08;0.98;;;0.60;;
39776;SDS011;25453;48.162;14.510;2023-07-16T14:03:36;1.48;;;0.75;;
39776;SDS011;25453;48.162;14.510;2023-07-16T14:06:03;1.05;;;0.70;;
39776;SDS011;25453;48.162;14.510;2023-07-16T14:08:30;1.20;;;0.80;;
39776;SDS011;25453;48.162;14.510;2023-07-16T14:11:00;1.40;;;0.98;;
39776;SDS011;25453;48.162;14.510;2023-07-16T14:13:27;1.17;;;0.85;;
39776;SDS011;25453;48.162;14.510;2023-07-16T14:15:55;1.27;;;0.77;;
39776;SDS011;25453;48.162;14.510;2023-07-16T14:18:22;1.63;;;1.00;;
39776;SDS011;25453;48.162;14.510;2023-07-16T14:20:49;1.02;;;0.80;;
39776;SDS011;25453;48.162;14.510;2023-07-16T14:23:16;0.80;;;0.50;;
39776;SDS011;25453;48.162;14.510;2023-07-16T14:25:43;0.85;;;0.52;;
39776;SDS011;25453;48.162;14.510;2023-07-16T14:28:11;0.98;;;0.63;;
39776;SDS011;25453;48.162;14.510;2023-07-16T14:30:38;1.10;;;0.75;;
39776;SDS011;25453;48.162;14.510;2023-07-16T14:33:05;1.63;;;1.02;;
39776;SDS011;25453;48.162;14.510;2023-07-16T14:35:33;1.60;;;1.00;;
39776;SDS011;25453;48.162;14.510;2023-07-16T14:38:04;2.05;;;1.00;;
39776;SDS011;25453;48.162;14.510;2023-07-16T14:40:31;1.17;;;0.80;;
39776;SDS011;25453;48.162;14.510;2023-07-16T14:42:59;1.63;;;0.95;;
39776;SDS011;25453;48.162;14.510;2023-07-16T14:45:26;1.42;;;0.90;;
39776;SDS011;25453;48.162;14.510;2023-07-16T14:47:54;1.27;;;0.80;;